joomplace.com alexa rank chart, joomplace.com alexa rank daily changes

joomplace.com alexa rank chart, joomplace.com alexa rank daily changes

joomplace.com
Actual rank:
644 917

RANK HISTORY

Date Rank Diff
2017/11/22 644 917 -8 435
2017/11/21 653 352 -28 414
2017/11/20 681 766 -4 567
2017/11/19 686 333 +5 056
2017/11/18 681 277 +8 225
2017/11/17 673 052 -31 334
2017/11/16 704 386 +61 251
2017/11/15 643 135 +16 008
2017/11/14 627 127 -5 756
2017/11/13 632 883 +40 565
2017/11/12 592 318 -9 797
2017/11/11 602 115 +17 129
2017/11/10 584 986 +10 714
2017/11/09 574 272 +11 072
2017/11/08 563 200 +5 471
2017/11/07 557 729 -1 812
2017/11/06 559 541 +2 553
2017/11/05 556 988 +23 395
2017/11/04 533 593 +7 446
2017/11/03 526 147 -18 791
2017/11/02 544 938 +17 728
2017/11/01 527 210 -10 795
2017/10/31 538 005 +17 957
2017/10/30 520 048 +15 424
2017/10/29 504 624 -12 345
2017/10/28 516 969 +9 100
2017/10/27 507 869 -29 390
2017/10/26 537 259 -14 725
2017/10/25 551 984 +2 502
2017/10/24 549 482 +14 275
2017/10/23 535 207 +4 338
2017/10/22 530 869 -32 681
2017/10/21 563 550 +8 590
2017/10/20 554 960 +10 788
2017/10/19 544 172 +14 483
2017/10/18 529 689 -18 066
2017/10/17 547 755 +3 382
2017/10/16 544 373 -72 845
2017/10/14 617 218 +20 443
2017/10/13 596 775 -34 912
2017/10/12 631 687 +426
2017/10/11 631 261 -19 054
2017/10/10 650 315 -1 198
2017/10/09 651 513 +15 087
2017/10/08 636 426 +3 678
2017/10/07 632 748 +17 968
2017/10/06 614 780 +18 494
2017/10/05 596 286 -10 986
2017/10/04 607 272 -28 727
2017/10/03 635 999 +7 856
2017/10/02 628 143 -4 164
2017/10/01 632 307 -43 010
2017/09/30 675 317 +22 615
2017/09/29 652 702 +11 271
2017/09/28 641 431 -19 294
2017/09/27 660 725 +2 782
2017/09/26 657 943 +19 414
2017/09/25 638 529 +20 639
2017/09/24 617 890 -21 080
2017/09/23 638 970

WIDGET FOR YOUR SITE

DOMAINS WITH THE NEAREST RANK

Domain Rank
surabayakerja.com 644 912
miamiliquidations.com 644 913
madewithpixlr.com 644 914
mistercat.com.ua 644 915
naturthermetemplin.de 644 916
joomplace.com 644 917
mpu-checkout.com 644 918
coinmonitor.info 644 919
gigk.jp 644 920
fisica.ru 644 921
altegrosky.ru 644 922

DOMAINS WITH THE NEAREST RANK BY TLD .com

Domain Rank
thqafawe3lom.com 644 910
thecoatlessprofessor.com 644 911
surabayakerja.com 644 912
miamiliquidations.com 644 913
madewithpixlr.com 644 914
joomplace.com 644 917
mpu-checkout.com 644 918
whathouse.com 644 923
mysask411.com 644 925
camisetas.com 644 926
goodguyvapes.com 644 927